METAR Data
IDs: Format: Raw Decoded Include TAF

Data at: 2144 UTC 18 Apr 2021

TFFF 182130Z AUTO 10014KT 9999 FEW028 28/22 Q1015 NOSIG